sensor_id;sensor_type;location;lat;lon;timestamp;P1;durP1;ratioP1;P2;durP2;ratioP2
19016;SDS011;9641;51.494;6.670;2023-05-29T00:00:12;5.23;;;3.37;;
19016;SDS011;9641;51.494;6.670;2023-05-29T00:02:41;4.83;;;3.67;;
19016;SDS011;9641;51.494;6.670;2023-05-29T00:05:09;3.67;;;3.30;;
19016;SDS011;9641;51.494;6.670;2023-05-29T00:07:38;4.67;;;3.23;;
19016;SDS011;9641;51.494;6.670;2023-05-29T00:10:06;4.17;;;3.53;;
19016;SDS011;9641;51.494;6.670;2023-05-29T00:12:33;8.67;;;3.70;;
19016;SDS011;9641;51.494;6.670;2023-05-29T00:15:00;4.97;;;2.97;;
19016;SDS011;9641;51.494;6.670;2023-05-29T00:17:29;6.40;;;3.53;;
19016;SDS011;9641;51.494;6.670;2023-05-29T00:19:57;5.57;;;3.50;;
19016;SDS011;9641;51.494;6.670;2023-05-29T00:22:24;8.07;;;3.43;;
19016;SDS011;9641;51.494;6.670;2023-05-29T00:24:53;8.07;;;3.90;;
19016;SDS011;9641;51.494;6.670;2023-05-29T00:27:19;9.90;;;4.20;;
19016;SDS011;9641;51.494;6.670;2023-05-29T00:29:46;4.80;;;3.40;;
19016;SDS011;9641;51.494;6.670;2023-05-29T00:32:13;5.13;;;3.47;;
19016;SDS011;9641;51.494;6.670;2023-05-29T00:34:40;5.63;;;3.70;;
19016;SDS011;9641;51.494;6.670;2023-05-29T00:37:07;8.03;;;4.67;;
19016;SDS011;9641;51.494;6.670;2023-05-29T00:39:34;7.23;;;4.17;;
19016;SDS011;9641;51.494;6.670;2023-05-29T00:42:02;8.93;;;4.40;;
19016;SDS011;9641;51.494;6.670;2023-05-29T00:44:29;4.73;;;3.77;;
19016;SDS011;9641;51.494;6.670;2023-05-29T00:46:56;9.00;;;4.60;;
19016;SDS011;9641;51.494;6.670;2023-05-29T00:49:23;5.87;;;3.90;;
19016;SDS011;9641;51.494;6.670;2023-05-29T00:51:52;8.07;;;4.50;;
19016;SDS011;9641;51.494;6.670;2023-05-29T00:54:21;8.30;;;3.57;;
19016;SDS011;9641;51.494;6.670;2023-05-29T00:56:52;8.00;;;4.13;;
19016;SDS011;9641;51.494;6.670;2023-05-29T00:59:21;8.53;;;4.10;;
19016;SDS011;9641;51.494;6.670;2023-05-29T01:01:48;5.77;;;3.47;;
19016;SDS011;9641;51.494;6.670;2023-05-29T01:04:16;10.63;;;4.27;;
19016;SDS011;9641;51.494;6.670;2023-05-29T01:06:43;10.67;;;3.97;;
19016;SDS011;9641;51.494;6.670;2023-05-29T01:09:10;10.30;;;3.57;;
19016;SDS011;9641;51.494;6.670;2023-05-29T01:11:41;11.10;;;3.70;;
19016;SDS011;9641;51.494;6.670;2023-05-29T01:14:16;12.53;;;3.90;;
19016;SDS011;9641;51.494;6.670;2023-05-29T01:16:51;5.63;;;3.37;;
19016;SDS011;9641;51.494;6.670;2023-05-29T01:19:26;22.40;;;4.00;;
19016;SDS011;9641;51.494;6.670;2023-05-29T01:22:07;8.50;;;2.77;;
19016;SDS011;9641;51.494;6.670;2023-05-29T01:24:43;7.23;;;3.00;;
19016;SDS011;9641;51.494;6.670;2023-05-29T01:27:17;4.90;;;2.93;;
19016;SDS011;9641;51.494;6.670;2023-05-29T01:29:46;6.07;;;3.10;;
19016;SDS011;9641;51.494;6.670;2023-05-29T01:32:15;12.07;;;3.20;;
19016;SDS011;9641;51.494;6.670;2023-05-29T01:34:44;9.50;;;3.30;;
19016;SDS011;9641;51.494;6.670;2023-05-29T01:37:13;10.83;;;3.20;;
19016;SDS011;9641;51.494;6.670;2023-05-29T01:39:40;7.87;;;3.47;;
19016;SDS011;9641;51.494;6.670;2023-05-29T01:42:07;7.53;;;3.37;;
19016;SDS011;9641;51.494;6.670;2023-05-29T01:44:36;5.37;;;3.33;;
19016;SDS011;9641;51.494;6.670;2023-05-29T01:47:04;11.50;;;3.90;;
19016;SDS011;9641;51.494;6.670;2023-05-29T01:49:33;12.17;;;3.87;;
19016;SDS011;9641;51.494;6.670;2023-05-29T01:52:02;14.57;;;3.53;;
19016;SDS011;9641;51.494;6.670;2023-05-29T01:54:30;14.53;;;3.40;;
19016;SDS011;9641;51.494;6.670;2023-05-29T01:56:57;9.77;;;3.03;;
19016;SDS011;9641;51.494;6.670;2023-05-29T01:59:25;10.83;;;3.40;;
19016;SDS011;9641;51.494;6.670;2023-05-29T02:01:54;10.77;;;3.27;;
19016;SDS011;9641;51.494;6.670;2023-05-29T02:04:21;12.67;;;3.00;;
19016;SDS011;9641;51.494;6.670;2023-05-29T02:06:47;10.40;;;3.53;;
19016;SDS011;9641;51.494;6.670;2023-05-29T02:09:16;10.33;;;3.60;;
19016;SDS011;9641;51.494;6.670;2023-05-29T02:11:43;10.30;;;3.10;;
19016;SDS011;9641;51.494;6.670;2023-05-29T02:14:11;14.63;;;3.63;;
19016;SDS011;9641;51.494;6.670;2023-05-29T02:16:37;14.33;;;3.07;;
19016;SDS011;9641;51.494;6.670;2023-05-29T02:19:07;10.87;;;3.40;;
19016;SDS011;9641;51.494;6.670;2023-05-29T02:21:34;12.43;;;2.83;;
19016;SDS011;9641;51.494;6.670;2023-05-29T02:24:04;10.43;;;3.53;;
19016;SDS011;9641;51.494;6.670;2023-05-29T02:26:32;11.17;;;3.00;;
19016;SDS011;9641;51.494;6.670;2023-05-29T02:29:01;10.77;;;3.03;;
19016;SDS011;9641;51.494;6.670;2023-05-29T02:31:30;13.60;;;3.07;;
19016;SDS011;9641;51.494;6.670;2023-05-29T02:33:58;14.17;;;3.30;;
19016;SDS011;9641;51.494;6.670;2023-05-29T02:36:26;12.87;;;3.17;;
19016;SDS011;9641;51.494;6.670;2023-05-29T02:38:53;5.83;;;2.33;;
19016;SDS011;9641;51.494;6.670;2023-05-29T02:41:20;11.17;;;2.80;;
19016;SDS011;9641;51.494;6.670;2023-05-29T02:43:49;16.03;;;3.33;;
19016;SDS011;9641;51.494;6.670;2023-05-29T02:46:16;15.30;;;4.17;;
19016;SDS011;9641;51.494;6.670;2023-05-29T02:48:43;8.53;;;3.10;;
19016;SDS011;9641;51.494;6.670;2023-05-29T02:51:11;9.90;;;2.97;;
19016;SDS011;9641;51.494;6.670;2023-05-29T02:53:39;10.20;;;3.47;;
19016;SDS011;9641;51.494;6.670;2023-05-29T02:56:06;13.27;;;3.63;;
19016;SDS011;9641;51.494;6.670;2023-05-29T02:58:34;12.50;;;3.40;;
19016;SDS011;9641;51.494;6.670;2023-05-29T03:01:01;13.83;;;3.20;;
19016;SDS011;9641;51.494;6.670;2023-05-29T03:03:29;17.80;;;4.10;;
19016;SDS011;9641;51.494;6.670;2023-05-29T03:05:57;16.13;;;3.73;;
19016;SDS011;9641;51.494;6.670;2023-05-29T03:08:24;14.93;;;3.37;;
19016;SDS011;9641;51.494;6.670;2023-05-29T03:10:54;11.47;;;3.07;;
19016;SDS011;9641;51.494;6.670;2023-05-29T03:13:22;10.37;;;2.97;;
19016;SDS011;9641;51.494;6.670;2023-05-29T03:15:55;13.17;;;4.07;;
19016;SDS011;9641;51.494;6.670;2023-05-29T03:18:22;7.90;;;3.20;;
19016;SDS011;9641;51.494;6.670;2023-05-29T03:20:49;11.33;;;3.30;;
19016;SDS011;9641;51.494;6.670;2023-05-29T03:23:16;11.10;;;3.03;;
19016;SDS011;9641;51.494;6.670;2023-05-29T03:25:43;8.07;;;3.03;;
19016;SDS011;9641;51.494;6.670;2023-05-29T03:28:14;8.37;;;3.20;;
19016;SDS011;9641;51.494;6.670;2023-05-29T03:30:42;13.97;;;3.40;;
19016;SDS011;9641;51.494;6.670;2023-05-29T03:33:12;17.87;;;3.80;;
19016;SDS011;9641;51.494;6.670;2023-05-29T03:36:02;17.30;;;3.87;;
19016;SDS011;9641;51.494;6.670;2023-05-29T03:38:29;12.37;;;3.50;;
19016;SDS011;9641;51.494;6.670;2023-05-29T03:40:58;13.23;;;3.47;;
19016;SDS011;9641;51.494;6.670;2023-05-29T03:43:27;10.63;;;3.30;;
19016;SDS011;9641;51.494;6.670;2023-05-29T03:45:54;13.93;;;3.07;;
19016;SDS011;9641;51.494;6.670;2023-05-29T03:48:21;12.57;;;4.20;;
19016;SDS011;9641;51.494;6.670;2023-05-29T03:50:48;13.37;;;3.43;;
19016;SDS011;9641;51.494;6.670;2023-05-29T03:53:22;12.23;;;3.40;;
19016;SDS011;9641;51.494;6.670;2023-05-29T03:55:48;12.93;;;3.73;;
19016;SDS011;9641;51.494;6.670;2023-05-29T03:58:15;17.00;;;3.93;;
19016;SDS011;9641;51.494;6.670;2023-05-29T04:00:43;22.87;;;4.57;;
19016;SDS011;9641;51.494;6.670;2023-05-29T04:03:13;12.23;;;3.80;;
19016;SDS011;9641;51.494;6.670;2023-05-29T04:05:41;17.07;;;3.67;;
19016;SDS011;9641;51.494;6.670;2023-05-29T04:08:08;11.97;;;3.27;;
19016;SDS011;9641;51.494;6.670;2023-05-29T04:10:36;20.80;;;4.80;;
19016;SDS011;9641;51.494;6.670;2023-05-29T04:13:04;19.47;;;3.77;;
19016;SDS011;9641;51.494;6.670;2023-05-29T04:15:32;15.30;;;3.27;;
19016;SDS011;9641;51.494;6.670;2023-05-29T04:18:01;13.97;;;3.10;;
19016;SDS011;9641;51.494;6.670;2023-05-29T04:20:29;23.30;;;3.70;;
19016;SDS011;9641;51.494;6.670;2023-05-29T04:22:56;13.80;;;3.33;;
19016;SDS011;9641;51.494;6.670;2023-05-29T04:25:23;16.13;;;3.73;;
19016;SDS011;9641;51.494;6.670;2023-05-29T04:27:50;11.47;;;4.63;;
19016;SDS011;9641;51.494;6.670;2023-05-29T04:30:21;16.90;;;3.63;;
19016;SDS011;9641;51.494;6.670;2023-05-29T04:32:48;22.03;;;3.67;;
19016;SDS011;9641;51.494;6.670;2023-05-29T04:35:19;11.53;;;3.40;;
19016;SDS011;9641;51.494;6.670;2023-05-29T04:37:57;16.10;;;3.67;;
19016;SDS011;9641;51.494;6.670;2023-05-29T04:40:27;13.83;;;3.80;;
19016;SDS011;9641;51.494;6.670;2023-05-29T04:42:54;10.40;;;3.60;;
19016;SDS011;9641;51.494;6.670;2023-05-29T04:45:22;13.57;;;3.23;;
19016;SDS011;9641;51.494;6.670;2023-05-29T04:47:51;18.90;;;3.70;;
19016;SDS011;9641;51.494;6.670;2023-05-29T04:50:21;19.37;;;3.57;;
19016;SDS011;9641;51.494;6.670;2023-05-29T04:52:51;15.50;;;3.53;;
19016;SDS011;9641;51.494;6.670;2023-05-29T04:55:18;19.10;;;3.60;;
19016;SDS011;9641;51.494;6.670;2023-05-29T04:57:45;15.33;;;3.10;;
19016;SDS011;9641;51.494;6.670;2023-05-29T05:00:13;21.83;;;4.00;;
19016;SDS011;9641;51.494;6.670;2023-05-29T05:02:42;14.23;;;3.70;;
19016;SDS011;9641;51.494;6.670;2023-05-29T05:05:11;14.93;;;3.57;;
19016;SDS011;9641;51.494;6.670;2023-05-29T05:07:40;18.83;;;3.40;;
19016;SDS011;9641;51.494;6.670;2023-05-29T05:10:07;21.40;;;4.13;;
19016;SDS011;9641;51.494;6.670;2023-05-29T05:12:34;22.50;;;3.53;;
19016;SDS011;9641;51.494;6.670;2023-05-29T05:15:02;18.67;;;4.40;;
19016;SDS011;9641;51.494;6.670;2023-05-29T05:17:30;11.00;;;3.30;;
19016;SDS011;9641;51.494;6.670;2023-05-29T05:19:57;13.30;;;2.90;;
19016;SDS011;9641;51.494;6.670;2023-05-29T05:22:24;20.37;;;4.30;;
19016;SDS011;9641;51.494;6.670;2023-05-29T05:24:52;17.17;;;3.63;;
19016;SDS011;9641;51.494;6.670;2023-05-29T05:27:19;14.17;;;3.37;;
19016;SDS011;9641;51.494;6.670;2023-05-29T05:29:46;24.97;;;5.17;;
19016;SDS011;9641;51.494;6.670;2023-05-29T05:32:13;20.13;;;3.00;;
19016;SDS011;9641;51.494;6.670;2023-05-29T05:34:41;18.50;;;4.43;;
19016;SDS011;9641;51.494;6.670;2023-05-29T05:37:08;12.30;;;3.47;;
19016;SDS011;9641;51.494;6.670;2023-05-29T05:39:36;21.43;;;3.87;;
19016;SDS011;9641;51.494;6.670;2023-05-29T05:42:05;17.00;;;3.13;;
19016;SDS011;9641;51.494;6.670;2023-05-29T05:44:45;17.23;;;3.70;;
19016;SDS011;9641;51.494;6.670;2023-05-29T05:47:13;18.03;;;4.37;;
19016;SDS011;9641;51.494;6.670;2023-05-29T05:49:41;18.73;;;3.40;;
19016;SDS011;9641;51.494;6.670;2023-05-29T05:52:08;16.83;;;3.67;;
19016;SDS011;9641;51.494;6.670;2023-05-29T05:54:35;14.23;;;3.40;;
19016;SDS011;9641;51.494;6.670;2023-05-29T05:57:02;13.73;;;3.23;;
19016;SDS011;9641;51.494;6.670;2023-05-29T05:59:32;15.73;;;3.43;;
19016;SDS011;9641;51.494;6.670;2023-05-29T06:02:01;18.50;;;4.37;;
19016;SDS011;9641;51.494;6.670;2023-05-29T06:04:29;16.63;;;3.40;;
19016;SDS011;9641;51.494;6.670;2023-05-29T06:06:57;13.00;;;3.97;;
19016;SDS011;9641;51.494;6.670;2023-05-29T06:09:24;11.70;;;3.13;;
19016;SDS011;9641;51.494;6.670;2023-05-29T06:11:52;13.53;;;3.20;;
19016;SDS011;9641;51.494;6.670;2023-05-29T06:14:20;13.93;;;3.00;;
19016;SDS011;9641;51.494;6.670;2023-05-29T06:16:47;17.40;;;3.37;;
19016;SDS011;9641;51.494;6.670;2023-05-29T06:19:14;14.33;;;2.83;;
19016;SDS011;9641;51.494;6.670;2023-05-29T06:22:01;11.70;;;2.90;;
19016;SDS011;9641;51.494;6.670;2023-05-29T06:24:31;15.23;;;4.03;;
19016;SDS011;9641;51.494;6.670;2023-05-29T06:26:59;10.80;;;2.80;;
19016;SDS011;9641;51.494;6.670;2023-05-29T06:29:28;18.37;;;3.30;;
19016;SDS011;9641;51.494;6.670;2023-05-29T06:31:56;17.27;;;3.07;;
19016;SDS011;9641;51.494;6.670;2023-05-29T06:34:23;10.87;;;2.63;;
19016;SDS011;9641;51.494;6.670;2023-05-29T06:36:51;16.60;;;4.13;;
19016;SDS011;9641;51.494;6.670;2023-05-29T06:39:17;16.30;;;2.90;;
19016;SDS011;9641;51.494;6.670;2023-05-29T06:41:45;10.17;;;2.77;;
19016;SDS011;9641;51.494;6.670;2023-05-29T06:44:16;12.93;;;3.10;;
19016;SDS011;9641;51.494;6.670;2023-05-29T06:46:45;16.27;;;3.10;;
19016;SDS011;9641;51.494;6.670;2023-05-29T06:49:12;15.17;;;3.97;;
19016;SDS011;9641;51.494;6.670;2023-05-29T06:51:39;15.87;;;3.43;;
19016;SDS011;9641;51.494;6.670;2023-05-29T06:54:19;13.83;;;2.83;;
19016;SDS011;9641;51.494;6.670;2023-05-29T06:56:46;10.37;;;3.00;;
19016;SDS011;9641;51.494;6.670;2023-05-29T06:59:13;13.17;;;3.60;;
19016;SDS011;9641;51.494;6.670;2023-05-29T07:01:40;11.87;;;2.67;;
19016;SDS011;9641;51.494;6.670;2023-05-29T07:04:09;10.10;;;2.90;;
19016;SDS011;9641;51.494;6.670;2023-05-29T07:06:37;15.87;;;3.13;;
19016;SDS011;9641;51.494;6.670;2023-05-29T07:09:05;11.40;;;2.40;;
19016;SDS011;9641;51.494;6.670;2023-05-29T07:11:33;12.00;;;3.13;;
19016;SDS011;9641;51.494;6.670;2023-05-29T07:14:00;15.30;;;3.03;;
19016;SDS011;9641;51.494;6.670;2023-05-29T07:16:27;15.47;;;3.57;;
19016;SDS011;9641;51.494;6.670;2023-05-29T07:18:59;16.37;;;2.90;;
19016;SDS011;9641;51.494;6.670;2023-05-29T07:21:30;11.13;;;3.10;;
19016;SDS011;9641;51.494;6.670;2023-05-29T07:23:58;12.10;;;3.43;;
19016;SDS011;9641;51.494;6.670;2023-05-29T07:26:26;16.10;;;3.60;;
19016;SDS011;9641;51.494;6.670;2023-05-29T07:28:53;13.27;;;2.60;;
19016;SDS011;9641;51.494;6.670;2023-05-29T07:31:19;10.50;;;2.77;;
19016;SDS011;9641;51.494;6.670;2023-05-29T07:33:48;10.57;;;3.43;;
19016;SDS011;9641;51.494;6.670;2023-05-29T07:36:16;17.20;;;2.93;;
19016;SDS011;9641;51.494;6.670;2023-05-29T07:38:46;11.33;;;2.90;;
19016;SDS011;9641;51.494;6.670;2023-05-29T07:41:15;10.97;;;3.20;;
19016;SDS011;9641;51.494;6.670;2023-05-29T07:43:49;14.50;;;2.90;;
19016;SDS011;9641;51.494;6.670;2023-05-29T07:46:18;13.97;;;3.23;;
19016;SDS011;9641;51.494;6.670;2023-05-29T07:48:47;11.80;;;2.90;;
19016;SDS011;9641;51.494;6.670;2023-05-29T07:51:15;12.47;;;3.20;;
19016;SDS011;9641;51.494;6.670;2023-05-29T07:53:46;10.53;;;2.63;;
19016;SDS011;9641;51.494;6.670;2023-05-29T07:56:14;12.20;;;2.80;;
19016;SDS011;9641;51.494;6.670;2023-05-29T07:58:41;11.67;;;2.20;;
19016;SDS011;9641;51.494;6.670;2023-05-29T08:01:09;12.13;;;3.03;;
19016;SDS011;9641;51.494;6.670;2023-05-29T08:03:37;13.23;;;2.80;;
19016;SDS011;9641;51.494;6.670;2023-05-29T08:06:25;9.50;;;2.93;;
19016;SDS011;9641;51.494;6.670;2023-05-29T08:08:54;14.37;;;3.07;;
19016;SDS011;9641;51.494;6.670;2023-05-29T08:11:21;12.73;;;2.67;;
19016;SDS011;9641;51.494;6.670;2023-05-29T08:13:48;12.40;;;2.93;;
19016;SDS011;9641;51.494;6.670;2023-05-29T08:16:16;10.47;;;2.80;;
19016;SDS011;9641;51.494;6.670;2023-05-29T08:18:43;10.30;;;2.37;;
19016;SDS011;9641;51.494;6.670;2023-05-29T08:21:10;14.67;;;3.37;;
19016;SDS011;9641;51.494;6.670;2023-05-29T08:23:37;9.70;;;3.03;;
19016;SDS011;9641;51.494;6.670;2023-05-29T08:26:06;12.67;;;2.53;;
19016;SDS011;9641;51.494;6.670;2023-05-29T08:28:33;8.97;;;3.00;;
19016;SDS011;9641;51.494;6.670;2023-05-29T08:31:00;11.13;;;3.30;;
19016;SDS011;9641;51.494;6.670;2023-05-29T08:33:27;10.33;;;2.97;;
19016;SDS011;9641;51.494;6.670;2023-05-29T08:35:56;12.40;;;2.77;;
19016;SDS011;9641;51.494;6.670;2023-05-29T08:38:24;9.00;;;2.63;;
19016;SDS011;9641;51.494;6.670;2023-05-29T08:40:51;11.63;;;2.80;;
19016;SDS011;9641;51.494;6.670;2023-05-29T08:43:20;10.77;;;3.00;;
19016;SDS011;9641;51.494;6.670;2023-05-29T08:45:53;10.93;;;3.00;;
19016;SDS011;9641;51.494;6.670;2023-05-29T08:48:22;9.63;;;2.37;;
19016;SDS011;9641;51.494;6.670;2023-05-29T08:50:52;10.57;;;2.90;;
19016;SDS011;9641;51.494;6.670;2023-05-29T08:53:20;11.63;;;3.00;;
19016;SDS011;9641;51.494;6.670;2023-05-29T08:55:49;10.93;;;2.90;;
19016;SDS011;9641;51.494;6.670;2023-05-29T08:58:19;8.33;;;2.57;;
19016;SDS011;9641;51.494;6.670;2023-05-29T09:00:48;13.57;;;3.00;;
19016;SDS011;9641;51.494;6.670;2023-05-29T09:03:16;13.27;;;2.50;;
19016;SDS011;9641;51.494;6.670;2023-05-29T09:05:45;12.27;;;2.50;;
19016;SDS011;9641;51.494;6.670;2023-05-29T09:08:12;13.00;;;3.00;;
19016;SDS011;9641;51.494;6.670;2023-05-29T09:10:40;8.13;;;2.53;;
19016;SDS011;9641;51.494;6.670;2023-05-29T09:13:08;14.23;;;2.83;;
19016;SDS011;9641;51.494;6.670;2023-05-29T09:15:37;13.03;;;2.90;;
19016;SDS011;9641;51.494;6.670;2023-05-29T09:18:08;12.93;;;3.37;;
19016;SDS011;9641;51.494;6.670;2023-05-29T09:20:35;10.50;;;2.60;;
19016;SDS011;9641;51.494;6.670;2023-05-29T09:23:02;9.83;;;2.37;;
19016;SDS011;9641;51.494;6.670;2023-05-29T09:25:31;10.40;;;2.77;;
19016;SDS011;9641;51.494;6.670;2023-05-29T09:28:01;11.20;;;2.87;;
19016;SDS011;9641;51.494;6.670;2023-05-29T09:30:33;7.83;;;2.87;;
19016;SDS011;9641;51.494;6.670;2023-05-29T09:33:03;11.93;;;2.60;;
19016;SDS011;9641;51.494;6.670;2023-05-29T09:35:32;9.50;;;3.70;;
19016;SDS011;9641;51.494;6.670;2023-05-29T09:38:00;14.90;;;3.57;;
19016;SDS011;9641;51.494;6.670;2023-05-29T09:40:29;11.10;;;3.17;;
19016;SDS011;9641;51.494;6.670;2023-05-29T09:43:01;11.57;;;2.60;;
19016;SDS011;9641;51.494;6.670;2023-05-29T09:45:30;9.20;;;2.23;;
19016;SDS011;9641;51.494;6.670;2023-05-29T09:47:57;6.23;;;2.30;;
19016;SDS011;9641;51.494;6.670;2023-05-29T09:50:26;8.33;;;2.70;;
19016;SDS011;9641;51.494;6.670;2023-05-29T09:52:55;11.70;;;3.50;;
19016;SDS011;9641;51.494;6.670;2023-05-29T09:55:23;9.67;;;2.23;;
19016;SDS011;9641;51.494;6.670;2023-05-29T09:57:53;8.77;;;2.40;;
19016;SDS011;9641;51.494;6.670;2023-05-29T10:00:21;11.57;;;2.60;;
19016;SDS011;9641;51.494;6.670;2023-05-29T10:02:48;13.33;;;2.90;;
19016;SDS011;9641;51.494;6.670;2023-05-29T10:05:15;12.17;;;2.83;;
19016;SDS011;9641;51.494;6.670;2023-05-29T10:07:44;11.87;;;2.73;;
19016;SDS011;9641;51.494;6.670;2023-05-29T10:10:13;9.50;;;2.40;;
19016;SDS011;9641;51.494;6.670;2023-05-29T10:12:42;12.20;;;2.60;;
19016;SDS011;9641;51.494;6.670;2023-05-29T10:15:14;9.07;;;2.83;;
19016;SDS011;9641;51.494;6.670;2023-05-29T10:17:43;8.37;;;2.37;;
19016;SDS011;9641;51.494;6.670;2023-05-29T10:20:16;10.27;;;2.53;;
19016;SDS011;9641;51.494;6.670;2023-05-29T10:22:47;13.07;;;2.57;;
19016;SDS011;9641;51.494;6.670;2023-05-29T10:25:17;12.07;;;2.80;;
19016;SDS011;9641;51.494;6.670;2023-05-29T10:27:46;9.87;;;2.57;;
19016;SDS011;9641;51.494;6.670;2023-05-29T10:30:15;13.20;;;3.17;;
19016;SDS011;9641;51.494;6.670;2023-05-29T10:32:56;9.37;;;2.43;;
19016;SDS011;9641;51.494;6.670;2023-05-29T10:35:37;7.90;;;2.33;;
19016;SDS011;9641;51.494;6.670;2023-05-29T10:38:13;9.37;;;3.07;;
19016;SDS011;9641;51.494;6.670;2023-05-29T10:40:42;16.30;;;3.07;;
19016;SDS011;9641;51.494;6.670;2023-05-29T10:43:19;8.47;;;2.30;;
19016;SDS011;9641;51.494;6.670;2023-05-29T10:45:57;11.40;;;2.97;;
19016;SDS011;9641;51.494;6.670;2023-05-29T10:51:23;11.43;;;3.10;;
19016;SDS011;9641;51.494;6.670;2023-05-29T10:53:53;11.10;;;2.83;;
19016;SDS011;9641;51.494;6.670;2023-05-29T10:56:21;12.20;;;2.77;;
19016;SDS011;9641;51.494;6.670;2023-05-29T10:58:54;7.60;;;2.10;;
19016;SDS011;9641;51.494;6.670;2023-05-29T11:01:22;6.87;;;2.20;;
19016;SDS011;9641;51.494;6.670;2023-05-29T11:03:50;9.75;;;2.60;;
19016;SDS011;9641;51.494;6.670;2023-05-29T11:06:19;7.93;;;2.60;;
19016;SDS011;9641;51.494;6.670;2023-05-29T11:08:54;11.80;;;2.70;;
19016;SDS011;9641;51.494;6.670;2023-05-29T11:11:30;10.63;;;2.55;;
19016;SDS011;9641;51.494;6.670;2023-05-29T11:14:01;7.00;;;2.80;;
19016;SDS011;9641;51.494;6.670;2023-05-29T11:16:36;7.32;;;2.38;;
19016;SDS011;9641;51.494;6.670;2023-05-29T11:19:04;8.30;;;2.95;;
19016;SDS011;9641;51.494;6.670;2023-05-29T11:21:33;12.00;;;2.53;;
19016;SDS011;9641;51.494;6.670;2023-05-29T11:24:06;7.38;;;2.65;;
19016;SDS011;9641;51.494;6.670;2023-05-29T11:26:34;8.32;;;2.45;;
19016;SDS011;9641;51.494;6.670;2023-05-29T11:29:04;7.90;;;2.28;;
19016;SDS011;9641;51.494;6.670;2023-05-29T11:31:35;9.00;;;2.78;;
19016;SDS011;9641;51.494;6.670;2023-05-29T11:34:03;10.95;;;3.03;;
19016;SDS011;9641;51.494;6.670;2023-05-29T11:36:31;10.00;;;2.78;;
19016;SDS011;9641;51.494;6.670;2023-05-29T11:38:58;9.70;;;2.65;;
19016;SDS011;9641;51.494;6.670;2023-05-29T11:41:27;7.28;;;2.05;;
19016;SDS011;9641;51.494;6.670;2023-05-29T11:43:57;8.30;;;2.40;;
19016;SDS011;9641;51.494;6.670;2023-05-29T11:46:25;10.70;;;3.15;;
19016;SDS011;9641;51.494;6.670;2023-05-29T11:48:53;7.07;;;2.25;;
19016;SDS011;9641;51.494;6.670;2023-05-29T11:51:20;7.65;;;2.53;;
19016;SDS011;9641;51.494;6.670;2023-05-29T11:53:47;6.47;;;1.83;;
19016;SDS011;9641;51.494;6.670;2023-05-29T11:56:14;7.53;;;2.75;;
19016;SDS011;9641;51.494;6.670;2023-05-29T11:58:42;7.75;;;2.85;;
19016;SDS011;9641;51.494;6.670;2023-05-29T12:01:09;6.22;;;2.47;;
19016;SDS011;9641;51.494;6.670;2023-05-29T12:03:37;7.18;;;2.40;;
19016;SDS011;9641;51.494;6.670;2023-05-29T12:06:05;6.78;;;2.35;;
19016;SDS011;9641;51.494;6.670;2023-05-29T12:08:32;6.78;;;2.30;;
19016;SDS011;9641;51.494;6.670;2023-05-29T12:10:59;12.63;;;3.92;;
19016;SDS011;9641;51.494;6.670;2023-05-29T12:13:26;10.77;;;3.10;;
19016;SDS011;9641;51.494;6.670;2023-05-29T12:15:56;8.18;;;2.42;;
19016;SDS011;9641;51.494;6.670;2023-05-29T12:18:26;4.97;;;2.80;;
19016;SDS011;9641;51.494;6.670;2023-05-29T12:20:57;5.03;;;2.03;;
19016;SDS011;9641;51.494;6.670;2023-05-29T12:23:24;7.63;;;2.40;;
19016;SDS011;9641;51.494;6.670;2023-05-29T12:25:51;10.75;;;2.75;;
19016;SDS011;9641;51.494;6.670;2023-05-29T12:28:19;7.10;;;2.58;;
19016;SDS011;9641;51.494;6.670;2023-05-29T12:30:47;5.43;;;2.35;;
19016;SDS011;9641;51.494;6.670;2023-05-29T12:33:25;8.23;;;2.47;;
19016;SDS011;9641;51.494;6.670;2023-05-29T12:35:54;7.88;;;2.70;;
19016;SDS011;9641;51.494;6.670;2023-05-29T12:38:26;8.55;;;2.35;;
19016;SDS011;9641;51.494;6.670;2023-05-29T12:40:53;9.20;;;2.63;;
19016;SDS011;9641;51.494;6.670;2023-05-29T12:43:20;6.10;;;2.20;;
19016;SDS011;9641;51.494;6.670;2023-05-29T12:45:53;5.90;;;2.40;;
19016;SDS011;9641;51.494;6.670;2023-05-29T12:48:25;4.40;;;2.00;;
19016;SDS011;9641;51.494;6.670;2023-05-29T12:50:53;6.85;;;2.10;;
19016;SDS011;9641;51.494;6.670;2023-05-29T12:53:22;7.57;;;2.20;;
19016;SDS011;9641;51.494;6.670;2023-05-29T12:55:55;8.40;;;2.40;;
19016;SDS011;9641;51.494;6.670;2023-05-29T12:58:22;9.13;;;2.40;;
19016;SDS011;9641;51.494;6.670;2023-05-29T13:00:51;4.85;;;2.35;;
19016;SDS011;9641;51.494;6.670;2023-05-29T13:03:21;5.50;;;2.67;;
19016;SDS011;9641;51.494;6.670;2023-05-29T13:05:50;5.47;;;2.40;;
19016;SDS011;9641;51.494;6.670;2023-05-29T13:08:18;6.03;;;2.33;;
19016;SDS011;9641;51.494;6.670;2023-05-29T13:10:45;3.78;;;2.17;;
19016;SDS011;9641;51.494;6.670;2023-05-29T13:13:12;7.60;;;2.80;;
19016;SDS011;9641;51.494;6.670;2023-05-29T13:15:39;6.28;;;2.00;;
19016;SDS011;9641;51.494;6.670;2023-05-29T13:18:06;7.15;;;2.58;;
19016;SDS011;9641;51.494;6.670;2023-05-29T13:20:33;8.35;;;2.33;;
19016;SDS011;9641;51.494;6.670;2023-05-29T13:23:01;7.13;;;2.22;;
19016;SDS011;9641;51.494;6.670;2023-05-29T13:25:28;6.32;;;2.33;;
19016;SDS011;9641;51.494;6.670;2023-05-29T13:27:55;6.18;;;2.40;;
19016;SDS011;9641;51.494;6.670;2023-05-29T13:30:22;3.85;;;2.47;;
19016;SDS011;9641;51.494;6.670;2023-05-29T13:32:49;6.53;;;2.03;;
19016;SDS011;9641;51.494;6.670;2023-05-29T13:35:17;5.88;;;2.20;;
19016;SDS011;9641;51.494;6.670;2023-05-29T13:37:45;4.95;;;2.30;;
19016;SDS011;9641;51.494;6.670;2023-05-29T13:40:14;5.57;;;1.92;;
19016;SDS011;9641;51.494;6.670;2023-05-29T13:42:41;5.70;;;2.28;;
19016;SDS011;9641;51.494;6.670;2023-05-29T13:45:08;11.65;;;2.75;;
19016;SDS011;9641;51.494;6.670;2023-05-29T13:47:36;6.18;;;2.08;;
19016;SDS011;9641;51.494;6.670;2023-05-29T13:50:04;6.43;;;2.13;;
19016;SDS011;9641;51.494;6.670;2023-05-29T13:52:32;8.65;;;2.25;;
19016;SDS011;9641;51.494;6.670;2023-05-29T13:54:59;7.78;;;2.40;;
19016;SDS011;9641;51.494;6.670;2023-05-29T13:57:32;5.07;;;2.45;;
19016;SDS011;9641;51.494;6.670;2023-05-29T13:59:59;9.75;;;2.50;;
19016;SDS011;9641;51.494;6.670;2023-05-29T14:02:30;7.35;;;2.53;;
19016;SDS011;9641;51.494;6.670;2023-05-29T14:04:57;8.13;;;2.25;;
19016;SDS011;9641;51.494;6.670;2023-05-29T14:07:24;12.18;;;2.33;;
19016;SDS011;9641;51.494;6.670;2023-05-29T14:09:51;8.25;;;2.47;;
19016;SDS011;9641;51.494;6.670;2023-05-29T14:12:18;8.00;;;2.88;;
19016;SDS011;9641;51.494;6.670;2023-05-29T14:14:46;9.20;;;2.45;;
19016;SDS011;9641;51.494;6.670;2023-05-29T14:17:14;6.68;;;2.25;;
19016;SDS011;9641;51.494;6.670;2023-05-29T14:19:40;6.22;;;2.50;;
19016;SDS011;9641;51.494;6.670;2023-05-29T14:22:10;8.50;;;2.50;;
19016;SDS011;9641;51.494;6.670;2023-05-29T14:24:37;5.40;;;2.25;;
19016;SDS011;9641;51.494;6.670;2023-05-29T14:27:04;9.43;;;2.55;;
19016;SDS011;9641;51.494;6.670;2023-05-29T14:29:31;8.90;;;3.35;;
19016;SDS011;9641;51.494;6.670;2023-05-29T14:31:59;6.47;;;2.33;;
19016;SDS011;9641;51.494;6.670;2023-05-29T14:34:26;10.15;;;2.45;;
19016;SDS011;9641;51.494;6.670;2023-05-29T14:36:53;7.97;;;2.33;;
19016;SDS011;9641;51.494;6.670;2023-05-29T14:39:20;7.55;;;2.65;;
19016;SDS011;9641;51.494;6.670;2023-05-29T14:41:47;8.57;;;2.70;;
19016;SDS011;9641;51.494;6.670;2023-05-29T14:44:14;7.30;;;2.50;;
19016;SDS011;9641;51.494;6.670;2023-05-29T14:46:41;6.55;;;2.50;;
19016;SDS011;9641;51.494;6.670;2023-05-29T14:49:09;5.45;;;2.10;;
19016;SDS011;9641;51.494;6.670;2023-05-29T14:51:43;5.65;;;2.35;;
19016;SDS011;9641;51.494;6.670;2023-05-29T14:54:10;7.30;;;2.40;;
19016;SDS011;9641;51.494;6.670;2023-05-29T14:56:37;5.82;;;2.20;;
19016;SDS011;9641;51.494;6.670;2023-05-29T14:59:04;9.45;;;2.50;;
19016;SDS011;9641;51.494;6.670;2023-05-29T15:01:31;4.68;;;2.42;;
19016;SDS011;9641;51.494;6.670;2023-05-29T15:03:58;5.97;;;2.20;;